Impacts TAF Board INFO
FOR SITUATIONAL AWARENESS. NOT TO BE USED FOR FLIGHT PLANNING PURPOSES.
IDs:

KASD - Slidell Arpt, LA, US

Issued at 0520 UTC 16 Aug 2018
Updated at 1024 UTC 16 Aug 2018
Potential Impact None Slight Moderate High
Time<<16/23Z 17/00Z 17/01Z 17/02Z 17/03Z 17/04Z 17/05Z 17/06Z 17/07Z 17/08Z 17/09Z 17/10Z 17/11Z>>
Type PRVL PRVL PRVL PRVL PRVL PRVL PRVL
VIS >6 >6 >6 >6 >6 >6 >6
CIG -- -- -- -- -- -- --
Cover SCT SCT SCT SCT SCT SCT SCT
FltCat VFR VFR VFR VFR VFR VFR VFR
WX VCTS VCTS VCTS -- -- -- --
WDir VRB VRB VRB VRB VRB VRB VRB
WSpd 5 5 5 0 0 0 0
WGst -- -- -- -- -- -- --

Raw TAF
KASD 160520Z 1606/1706 00000KT P6SM SKC
  FM161400 VRB03KT P6SM FEW250
  FM161900 VRB05KT P6SM VCTS SCT035CB SCT120
  FM170200 00000KT P6SM SCT250


METAR Board
Radar Display
Forecast Discussion

FOR SITUATIONAL AWARENESS. NOT TO BE USED FOR FLIGHT PLANNING PURPOSES.